sensor_id;sensor_type;location;lat;lon;timestamp;P1;durP1;ratioP1;P2;durP2;ratioP2
66739;SDS011;53653;52.188;8.602;2023-03-17T00:02:08;8.67;;;3.27;;
66739;SDS011;53653;52.188;8.602;2023-03-17T00:04:35;9.23;;;3.10;;
66739;SDS011;53653;52.188;8.602;2023-03-17T00:07:00;8.13;;;3.70;;
66739;SDS011;53653;52.188;8.602;2023-03-17T00:09:26;9.68;;;3.55;;
66739;SDS011;53653;52.188;8.602;2023-03-17T00:11:51;9.90;;;3.90;;
66739;SDS011;53653;52.188;8.602;2023-03-17T00:14:17;9.63;;;4.00;;
66739;SDS011;53653;52.188;8.602;2023-03-17T00:16:46;12.43;;;4.00;;
66739;SDS011;53653;52.188;8.602;2023-03-17T00:19:18;9.83;;;4.00;;
66739;SDS011;53653;52.188;8.602;2023-03-17T00:21:52;11.00;;;4.18;;
66739;SDS011;53653;52.188;8.602;2023-03-17T00:24:17;8.93;;;3.67;;
66739;SDS011;53653;52.188;8.602;2023-03-17T00:26:42;8.05;;;3.72;;
66739;SDS011;53653;52.188;8.602;2023-03-17T00:29:08;9.20;;;3.60;;
66739;SDS011;53653;52.188;8.602;2023-03-17T00:31:33;9.63;;;4.00;;
66739;SDS011;53653;52.188;8.602;2023-03-17T00:33:59;10.32;;;3.80;;
66739;SDS011;53653;52.188;8.602;2023-03-17T00:36:29;6.97;;;2.60;;
66739;SDS011;53653;52.188;8.602;2023-03-17T00:38:56;8.95;;;3.63;;
66739;SDS011;53653;52.188;8.602;2023-03-17T00:41:23;9.20;;;3.92;;
66739;SDS011;53653;52.188;8.602;2023-03-17T00:43:49;9.05;;;3.20;;
66739;SDS011;53653;52.188;8.602;2023-03-17T00:46:37;10.10;;;3.40;;
66739;SDS011;53653;52.188;8.602;2023-03-17T00:49:03;10.20;;;3.60;;
66739;SDS011;53653;52.188;8.602;2023-03-17T00:51:38;8.52;;;3.72;;
66739;SDS011;53653;52.188;8.602;2023-03-17T00:54:04;9.23;;;3.38;;
66739;SDS011;53653;52.188;8.602;2023-03-17T00:56:29;8.17;;;3.70;;
66739;SDS011;53653;52.188;8.602;2023-03-17T00:58:55;10.98;;;3.72;;
66739;SDS011;53653;52.188;8.602;2023-03-17T01:01:21;12.57;;;3.90;;
66739;SDS011;53653;52.188;8.602;2023-03-17T01:03:46;11.40;;;3.67;;
66739;SDS011;53653;52.188;8.602;2023-03-17T01:06:12;8.68;;;3.55;;
66739;SDS011;53653;52.188;8.602;2023-03-17T01:08:39;10.70;;;3.88;;
66739;SDS011;53653;52.188;8.602;2023-03-17T01:11:08;10.20;;;3.63;;
66739;SDS011;53653;52.188;8.602;2023-03-17T01:13:42;9.40;;;3.65;;
66739;SDS011;53653;52.188;8.602;2023-03-17T01:16:09;7.97;;;3.60;;
66739;SDS011;53653;52.188;8.602;2023-03-17T01:18:35;9.35;;;4.28;;
66739;SDS011;53653;52.188;8.602;2023-03-17T01:21:01;10.80;;;3.75;;
66739;SDS011;53653;52.188;8.602;2023-03-17T01:23:27;8.87;;;3.93;;
66739;SDS011;53653;52.188;8.602;2023-03-17T01:25:52;8.10;;;3.20;;
66739;SDS011;53653;52.188;8.602;2023-03-17T01:28:18;9.48;;;3.40;;
66739;SDS011;53653;52.188;8.602;2023-03-17T01:30:44;8.53;;;3.70;;
66739;SDS011;53653;52.188;8.602;2023-03-17T01:33:11;8.93;;;3.88;;
66739;SDS011;53653;52.188;8.602;2023-03-17T01:35:37;9.13;;;3.53;;
66739;SDS011;53653;52.188;8.602;2023-03-17T01:38:04;9.32;;;3.20;;
66739;SDS011;53653;52.188;8.602;2023-03-17T01:40:34;7.75;;;2.97;;
66739;SDS011;53653;52.188;8.602;2023-03-17T01:48:39;8.65;;;3.60;;
66739;SDS011;53653;52.188;8.602;2023-03-17T01:51:10;8.57;;;3.67;;
66739;SDS011;53653;52.188;8.602;2023-03-17T01:53:41;8.60;;;3.50;;
66739;SDS011;53653;52.188;8.602;2023-03-17T01:56:11;7.70;;;3.47;;
66739;SDS011;53653;52.188;8.602;2023-03-17T01:58:37;8.10;;;3.47;;
66739;SDS011;53653;52.188;8.602;2023-03-17T02:01:04;9.55;;;3.90;;
66739;SDS011;53653;52.188;8.602;2023-03-17T02:03:31;8.60;;;3.77;;
66739;SDS011;53653;52.188;8.602;2023-03-17T02:05:57;8.00;;;3.63;;
66739;SDS011;53653;52.188;8.602;2023-03-17T02:08:23;6.93;;;3.25;;
66739;SDS011;53653;52.188;8.602;2023-03-17T02:10:48;9.20;;;3.57;;
66739;SDS011;53653;52.188;8.602;2023-03-17T02:13:15;10.57;;;3.80;;
66739;SDS011;53653;52.188;8.602;2023-03-17T02:18:13;7.85;;;3.58;;
66739;SDS011;53653;52.188;8.602;2023-03-17T02:23:16;8.13;;;3.50;;
66739;SDS011;53653;52.188;8.602;2023-03-17T02:25:46;8.68;;;3.47;;
66739;SDS011;53653;52.188;8.602;2023-03-17T02:28:24;11.73;;;3.90;;
66739;SDS011;53653;52.188;8.602;2023-03-17T02:30:54;10.93;;;4.47;;
66739;SDS011;53653;52.188;8.602;2023-03-17T02:33:19;9.90;;;4.10;;
66739;SDS011;53653;52.188;8.602;2023-03-17T02:35:45;10.83;;;3.53;;
66739;SDS011;53653;52.188;8.602;2023-03-17T02:38:11;8.73;;;3.72;;
66739;SDS011;53653;52.188;8.602;2023-03-17T02:40:36;8.83;;;3.80;;
66739;SDS011;53653;52.188;8.602;2023-03-17T02:43:02;8.30;;;3.70;;
66739;SDS011;53653;52.188;8.602;2023-03-17T02:45:29;9.65;;;3.30;;
66739;SDS011;53653;52.188;8.602;2023-03-17T02:47:55;9.43;;;3.75;;
66739;SDS011;53653;52.188;8.602;2023-03-17T02:50:22;9.20;;;4.00;;
66739;SDS011;53653;52.188;8.602;2023-03-17T02:52:51;8.93;;;3.63;;
66739;SDS011;53653;52.188;8.602;2023-03-17T02:55:16;8.68;;;3.95;;
66739;SDS011;53653;52.188;8.602;2023-03-17T02:57:42;8.47;;;3.47;;
66739;SDS011;53653;52.188;8.602;2023-03-17T03:00:08;8.98;;;3.58;;
66739;SDS011;53653;52.188;8.602;2023-03-17T03:02:35;9.00;;;3.47;;
66739;SDS011;53653;52.188;8.602;2023-03-17T03:05:01;8.80;;;3.60;;
66739;SDS011;53653;52.188;8.602;2023-03-17T03:07:27;10.23;;;4.05;;
66739;SDS011;53653;52.188;8.602;2023-03-17T03:09:53;9.25;;;3.50;;
66739;SDS011;53653;52.188;8.602;2023-03-17T03:12:19;11.43;;;4.03;;
66739;SDS011;53653;52.188;8.602;2023-03-17T03:14:44;9.40;;;3.43;;
66739;SDS011;53653;52.188;8.602;2023-03-17T03:17:10;11.05;;;3.50;;
66739;SDS011;53653;52.188;8.602;2023-03-17T03:19:35;9.27;;;3.77;;
66739;SDS011;53653;52.188;8.602;2023-03-17T03:22:01;12.65;;;3.63;;
66739;SDS011;53653;52.188;8.602;2023-03-17T03:24:27;10.97;;;3.67;;
66739;SDS011;53653;52.188;8.602;2023-03-17T03:26:52;8.77;;;3.40;;
66739;SDS011;53653;52.188;8.602;2023-03-17T03:29:18;10.50;;;4.35;;
66739;SDS011;53653;52.188;8.602;2023-03-17T03:31:44;9.83;;;3.70;;
66739;SDS011;53653;52.188;8.602;2023-03-17T03:34:12;12.30;;;3.80;;
66739;SDS011;53653;52.188;8.602;2023-03-17T03:36:38;11.93;;;5.40;;
66739;SDS011;53653;52.188;8.602;2023-03-17T03:39:04;8.53;;;3.63;;
66739;SDS011;53653;52.188;8.602;2023-03-17T03:41:29;9.02;;;3.72;;
66739;SDS011;53653;52.188;8.602;2023-03-17T03:43:55;10.87;;;3.93;;
66739;SDS011;53653;52.188;8.602;2023-03-17T03:46:20;8.85;;;3.50;;
66739;SDS011;53653;52.188;8.602;2023-03-17T03:48:47;8.68;;;3.75;;
66739;SDS011;53653;52.188;8.602;2023-03-17T03:51:12;8.50;;;3.57;;
66739;SDS011;53653;52.188;8.602;2023-03-17T03:53:38;9.53;;;4.13;;
66739;SDS011;53653;52.188;8.602;2023-03-17T03:56:15;9.93;;;3.78;;
66739;SDS011;53653;52.188;8.602;2023-03-17T03:59:05;9.10;;;3.60;;
66739;SDS011;53653;52.188;8.602;2023-03-17T04:01:31;9.30;;;3.58;;
66739;SDS011;53653;52.188;8.602;2023-03-17T04:03:57;10.47;;;4.40;;
66739;SDS011;53653;52.188;8.602;2023-03-17T04:06:22;9.20;;;3.77;;
66739;SDS011;53653;52.188;8.602;2023-03-17T04:08:48;8.18;;;3.38;;
66739;SDS011;53653;52.188;8.602;2023-03-17T04:11:13;10.80;;;4.53;;
66739;SDS011;53653;52.188;8.602;2023-03-17T04:13:39;10.20;;;4.05;;
66739;SDS011;53653;52.188;8.602;2023-03-17T04:16:04;11.73;;;3.83;;
66739;SDS011;53653;52.188;8.602;2023-03-17T04:18:30;8.80;;;3.87;;
66739;SDS011;53653;52.188;8.602;2023-03-17T04:20:56;10.60;;;4.13;;
66739;SDS011;53653;52.188;8.602;2023-03-17T04:23:21;10.70;;;3.87;;
66739;SDS011;53653;52.188;8.602;2023-03-17T04:25:48;10.07;;;4.85;;
66739;SDS011;53653;52.188;8.602;2023-03-17T04:28:15;9.97;;;3.70;;
66739;SDS011;53653;52.188;8.602;2023-03-17T04:30:40;9.35;;;4.20;;
66739;SDS011;53653;52.188;8.602;2023-03-17T04:33:06;9.77;;;3.70;;
66739;SDS011;53653;52.188;8.602;2023-03-17T04:35:32;11.27;;;4.40;;
66739;SDS011;53653;52.188;8.602;2023-03-17T04:37:57;10.70;;;4.57;;
66739;SDS011;53653;52.188;8.602;2023-03-17T04:40:23;10.00;;;3.58;;
66739;SDS011;53653;52.188;8.602;2023-03-17T04:42:48;10.13;;;4.47;;
66739;SDS011;53653;52.188;8.602;2023-03-17T04:45:14;9.82;;;4.07;;
66739;SDS011;53653;52.188;8.602;2023-03-17T04:47:40;11.70;;;4.40;;
66739;SDS011;53653;52.188;8.602;2023-03-17T04:50:06;10.32;;;4.32;;
66739;SDS011;53653;52.188;8.602;2023-03-17T04:52:33;14.77;;;4.13;;
66739;SDS011;53653;52.188;8.602;2023-03-17T04:54:59;10.67;;;4.37;;
66739;SDS011;53653;52.188;8.602;2023-03-17T04:57:24;9.63;;;3.90;;
66739;SDS011;53653;52.188;8.602;2023-03-17T04:59:50;11.00;;;4.20;;
66739;SDS011;53653;52.188;8.602;2023-03-17T05:02:15;10.57;;;4.30;;
66739;SDS011;53653;52.188;8.602;2023-03-17T05:04:43;12.27;;;4.45;;
66739;SDS011;53653;52.188;8.602;2023-03-17T05:07:09;11.63;;;4.25;;
66739;SDS011;53653;52.188;8.602;2023-03-17T05:09:35;11.90;;;4.63;;
66739;SDS011;53653;52.188;8.602;2023-03-17T05:12:02;11.23;;;4.30;;
66739;SDS011;53653;52.188;8.602;2023-03-17T05:14:28;11.60;;;6.27;;
66739;SDS011;53653;52.188;8.602;2023-03-17T05:16:53;13.32;;;5.22;;
66739;SDS011;53653;52.188;8.602;2023-03-17T05:19:19;11.85;;;4.45;;
66739;SDS011;53653;52.188;8.602;2023-03-17T05:21:45;11.77;;;4.77;;
66739;SDS011;53653;52.188;8.602;2023-03-17T05:24:11;10.98;;;4.32;;
66739;SDS011;53653;52.188;8.602;2023-03-17T05:26:37;9.20;;;4.37;;
66739;SDS011;53653;52.188;8.602;2023-03-17T05:29:03;13.35;;;5.03;;
66739;SDS011;53653;52.188;8.602;2023-03-17T05:31:29;10.75;;;4.20;;
66739;SDS011;53653;52.188;8.602;2023-03-17T05:33:55;9.93;;;4.50;;
66739;SDS011;53653;52.188;8.602;2023-03-17T05:36:21;12.98;;;5.30;;
66739;SDS011;53653;52.188;8.602;2023-03-17T05:38:47;10.90;;;4.28;;
66739;SDS011;53653;52.188;8.602;2023-03-17T05:41:12;10.90;;;4.33;;
66739;SDS011;53653;52.188;8.602;2023-03-17T05:43:38;14.53;;;5.10;;
66739;SDS011;53653;52.188;8.602;2023-03-17T05:46:04;11.93;;;4.78;;
66739;SDS011;53653;52.188;8.602;2023-03-17T05:48:30;12.07;;;4.75;;
66739;SDS011;53653;52.188;8.602;2023-03-17T05:50:56;14.03;;;5.33;;
66739;SDS011;53653;52.188;8.602;2023-03-17T05:53:21;14.27;;;5.32;;
66739;SDS011;53653;52.188;8.602;2023-03-17T05:55:47;9.63;;;3.90;;
66739;SDS011;53653;52.188;8.602;2023-03-17T05:58:14;11.77;;;4.63;;
66739;SDS011;53653;52.188;8.602;2023-03-17T06:00:41;12.38;;;5.32;;
66739;SDS011;53653;52.188;8.602;2023-03-17T06:03:07;11.77;;;5.18;;
66739;SDS011;53653;52.188;8.602;2023-03-17T06:05:33;12.63;;;4.80;;
66739;SDS011;53653;52.188;8.602;2023-03-17T06:07:59;11.65;;;5.35;;
66739;SDS011;53653;52.188;8.602;2023-03-17T06:10:26;10.57;;;4.95;;
66739;SDS011;53653;52.188;8.602;2023-03-17T06:12:52;12.23;;;4.78;;
66739;SDS011;53653;52.188;8.602;2023-03-17T06:15:18;11.32;;;4.93;;
66739;SDS011;53653;52.188;8.602;2023-03-17T06:17:44;13.77;;;5.33;;
66739;SDS011;53653;52.188;8.602;2023-03-17T06:23:58;9.95;;;4.03;;
66739;SDS011;53653;52.188;8.602;2023-03-17T06:26:24;11.37;;;4.67;;
66739;SDS011;53653;52.188;8.602;2023-03-17T06:28:49;12.60;;;5.57;;
66739;SDS011;53653;52.188;8.602;2023-03-17T06:31:15;12.13;;;4.67;;
66739;SDS011;53653;52.188;8.602;2023-03-17T06:33:40;13.03;;;5.23;;
66739;SDS011;53653;52.188;8.602;2023-03-17T06:36:06;10.55;;;4.32;;
66739;SDS011;53653;52.188;8.602;2023-03-17T06:38:32;11.27;;;5.03;;
66739;SDS011;53653;52.188;8.602;2023-03-17T06:40:58;12.57;;;4.77;;
66739;SDS011;53653;52.188;8.602;2023-03-17T06:43:23;11.77;;;4.40;;
66739;SDS011;53653;52.188;8.602;2023-03-17T06:45:49;13.70;;;4.60;;
66739;SDS011;53653;52.188;8.602;2023-03-17T06:48:16;11.77;;;5.00;;
66739;SDS011;53653;52.188;8.602;2023-03-17T06:50:42;12.87;;;4.40;;
66739;SDS011;53653;52.188;8.602;2023-03-17T06:53:07;9.55;;;3.67;;
66739;SDS011;53653;52.188;8.602;2023-03-17T06:55:33;12.80;;;4.90;;
66739;SDS011;53653;52.188;8.602;2023-03-17T06:57:58;9.27;;;3.97;;
66739;SDS011;53653;52.188;8.602;2023-03-17T07:00:25;10.50;;;3.53;;
66739;SDS011;53653;52.188;8.602;2023-03-17T07:02:51;13.60;;;4.88;;
66739;SDS011;53653;52.188;8.602;2023-03-17T07:05:17;13.93;;;5.40;;
66739;SDS011;53653;52.188;8.602;2023-03-17T07:07:43;10.20;;;4.30;;
66739;SDS011;53653;52.188;8.602;2023-03-17T07:10:09;10.20;;;4.10;;
66739;SDS011;53653;52.188;8.602;2023-03-17T07:12:37;8.77;;;4.05;;
66739;SDS011;53653;52.188;8.602;2023-03-17T07:15:03;11.90;;;4.25;;
66739;SDS011;53653;52.188;8.602;2023-03-17T07:17:29;8.88;;;3.55;;
66739;SDS011;53653;52.188;8.602;2023-03-17T07:19:54;9.47;;;3.83;;
66739;SDS011;53653;52.188;8.602;2023-03-17T07:22:20;9.57;;;4.00;;
66739;SDS011;53653;52.188;8.602;2023-03-17T07:24:46;10.15;;;4.40;;
66739;SDS011;53653;52.188;8.602;2023-03-17T07:27:14;10.02;;;4.57;;
66739;SDS011;53653;52.188;8.602;2023-03-17T07:29:40;10.13;;;4.40;;
66739;SDS011;53653;52.188;8.602;2023-03-17T07:32:06;10.13;;;4.40;;
66739;SDS011;53653;52.188;8.602;2023-03-17T07:34:33;11.82;;;5.03;;
66739;SDS011;53653;52.188;8.602;2023-03-17T07:37:00;11.70;;;4.43;;
66739;SDS011;53653;52.188;8.602;2023-03-17T07:39:25;10.18;;;4.20;;
66739;SDS011;53653;52.188;8.602;2023-03-17T07:44:25;9.02;;;3.60;;
66739;SDS011;53653;52.188;8.602;2023-03-17T07:46:51;9.55;;;4.90;;
66739;SDS011;53653;52.188;8.602;2023-03-17T07:49:17;9.43;;;4.47;;
66739;SDS011;53653;52.188;8.602;2023-03-17T07:51:43;9.27;;;3.83;;
66739;SDS011;53653;52.188;8.602;2023-03-17T07:54:09;8.45;;;3.60;;
66739;SDS011;53653;52.188;8.602;2023-03-17T07:56:36;11.53;;;4.10;;
66739;SDS011;53653;52.188;8.602;2023-03-17T07:59:02;10.23;;;4.40;;
66739;SDS011;53653;52.188;8.602;2023-03-17T08:01:27;12.77;;;4.32;;
66739;SDS011;53653;52.188;8.602;2023-03-17T08:03:54;11.15;;;4.38;;
66739;SDS011;53653;52.188;8.602;2023-03-17T08:06:20;10.77;;;4.23;;
66739;SDS011;53653;52.188;8.602;2023-03-17T08:11:17;10.90;;;4.47;;
66739;SDS011;53653;52.188;8.602;2023-03-17T08:13:44;10.93;;;4.18;;
66739;SDS011;53653;52.188;8.602;2023-03-17T08:16:10;9.40;;;4.53;;
66739;SDS011;53653;52.188;8.602;2023-03-17T08:18:36;13.80;;;4.68;;
66739;SDS011;53653;52.188;8.602;2023-03-17T08:21:01;10.43;;;4.03;;
66739;SDS011;53653;52.188;8.602;2023-03-17T08:23:27;11.88;;;4.18;;
66739;SDS011;53653;52.188;8.602;2023-03-17T08:25:56;10.90;;;4.40;;
66739;SDS011;53653;52.188;8.602;2023-03-17T08:28:23;10.18;;;4.47;;
66739;SDS011;53653;52.188;8.602;2023-03-17T08:30:49;9.80;;;3.90;;
66739;SDS011;53653;52.188;8.602;2023-03-17T08:33:14;13.50;;;4.20;;
66739;SDS011;53653;52.188;8.602;2023-03-17T08:35:41;8.52;;;4.07;;
66739;SDS011;53653;52.188;8.602;2023-03-17T08:38:07;10.10;;;3.78;;
66739;SDS011;53653;52.188;8.602;2023-03-17T08:40:32;9.80;;;4.10;;
66739;SDS011;53653;52.188;8.602;2023-03-17T08:42:58;9.27;;;3.90;;
66739;SDS011;53653;52.188;8.602;2023-03-17T08:45:24;8.77;;;3.70;;
66739;SDS011;53653;52.188;8.602;2023-03-17T08:47:50;10.60;;;4.33;;
66739;SDS011;53653;52.188;8.602;2023-03-17T08:50:24;9.65;;;4.45;;
66739;SDS011;53653;52.188;8.602;2023-03-17T08:52:50;10.67;;;4.80;;
66739;SDS011;53653;52.188;8.602;2023-03-17T08:55:16;10.20;;;4.18;;
66739;SDS011;53653;52.188;8.602;2023-03-17T08:57:44;10.98;;;4.78;;
66739;SDS011;53653;52.188;8.602;2023-03-17T09:00:13;8.88;;;4.13;;
66739;SDS011;53653;52.188;8.602;2023-03-17T09:02:44;10.53;;;4.27;;
66739;SDS011;53653;52.188;8.602;2023-03-17T09:05:11;9.25;;;4.10;;
66739;SDS011;53653;52.188;8.602;2023-03-17T09:07:38;8.48;;;3.63;;
66739;SDS011;53653;52.188;8.602;2023-03-17T09:10:06;9.68;;;4.22;;
66739;SDS011;53653;52.188;8.602;2023-03-17T09:12:33;11.50;;;3.92;;
66739;SDS011;53653;52.188;8.602;2023-03-17T09:14:59;11.50;;;4.10;;
66739;SDS011;53653;52.188;8.602;2023-03-17T09:17:24;10.80;;;4.33;;
66739;SDS011;53653;52.188;8.602;2023-03-17T09:19:50;11.35;;;4.55;;
66739;SDS011;53653;52.188;8.602;2023-03-17T09:22:16;10.30;;;4.33;;
66739;SDS011;53653;52.188;8.602;2023-03-17T09:24:45;10.45;;;4.03;;
66739;SDS011;53653;52.188;8.602;2023-03-17T09:27:11;9.68;;;4.25;;
66739;SDS011;53653;52.188;8.602;2023-03-17T09:29:37;9.63;;;3.88;;
66739;SDS011;53653;52.188;8.602;2023-03-17T09:32:03;8.80;;;3.60;;
66739;SDS011;53653;52.188;8.602;2023-03-17T09:34:29;16.25;;;4.35;;
66739;SDS011;53653;52.188;8.602;2023-03-17T09:36:55;10.63;;;4.38;;
66739;SDS011;53653;52.188;8.602;2023-03-17T09:39:21;10.47;;;4.20;;
66739;SDS011;53653;52.188;8.602;2023-03-17T09:41:53;10.73;;;3.80;;
66739;SDS011;53653;52.188;8.602;2023-03-17T09:47:47;8.40;;;3.40;;
66739;SDS011;53653;52.188;8.602;2023-03-17T09:53:03;8.53;;;3.40;;
66739;SDS011;53653;52.188;8.602;2023-03-17T09:55:36;8.30;;;3.38;;
66739;SDS011;53653;52.188;8.602;2023-03-17T10:01:53;8.18;;;3.30;;
66739;SDS011;53653;52.188;8.602;2023-03-17T10:04:20;9.10;;;3.40;;
66739;SDS011;53653;52.188;8.602;2023-03-17T10:06:45;9.63;;;3.72;;
66739;SDS011;53653;52.188;8.602;2023-03-17T10:14:50;8.48;;;3.38;;
66739;SDS011;53653;52.188;8.602;2023-03-17T10:17:24;9.23;;;4.03;;
66739;SDS011;53653;52.188;8.602;2023-03-17T10:23:04;9.35;;;3.40;;
66739;SDS011;53653;52.188;8.602;2023-03-17T10:25:34;9.50;;;2.90;;
66739;SDS011;53653;52.188;8.602;2023-03-17T10:28:05;10.05;;;3.15;;
66739;SDS011;53653;52.188;8.602;2023-03-17T10:30:36;9.82;;;3.38;;
66739;SDS011;53653;52.188;8.602;2023-03-17T10:33:03;7.30;;;2.90;;
66739;SDS011;53653;52.188;8.602;2023-03-17T10:35:33;7.10;;;2.92;;
66739;SDS011;53653;52.188;8.602;2023-03-17T10:38:01;8.17;;;3.07;;
66739;SDS011;53653;52.188;8.602;2023-03-17T10:40:38;9.52;;;4.28;;
66739;SDS011;53653;52.188;8.602;2023-03-17T10:43:05;10.57;;;3.10;;
66739;SDS011;53653;52.188;8.602;2023-03-17T10:45:36;8.68;;;3.40;;
66739;SDS011;53653;52.188;8.602;2023-03-17T10:48:08;8.80;;;3.00;;
66739;SDS011;53653;52.188;8.602;2023-03-17T10:50:35;7.95;;;2.80;;
66739;SDS011;53653;52.188;8.602;2023-03-17T10:55:28;7.43;;;2.87;;
66739;SDS011;53653;52.188;8.602;2023-03-17T11:00:27;9.77;;;3.33;;
66739;SDS011;53653;52.188;8.602;2023-03-17T11:02:58;14.30;;;7.63;;
66739;SDS011;53653;52.188;8.602;2023-03-17T11:05:25;9.43;;;4.23;;
66739;SDS011;53653;52.188;8.602;2023-03-17T11:08:14;7.38;;;2.90;;
66739;SDS011;53653;52.188;8.602;2023-03-17T11:11:03;7.68;;;3.42;;
66739;SDS011;53653;52.188;8.602;2023-03-17T11:13:30;6.53;;;2.60;;
66739;SDS011;53653;52.188;8.602;2023-03-17T11:16:16;9.13;;;2.93;;
66739;SDS011;53653;52.188;8.602;2023-03-17T11:18:46;7.85;;;2.90;;
66739;SDS011;53653;52.188;8.602;2023-03-17T11:21:18;6.68;;;2.58;;
66739;SDS011;53653;52.188;8.602;2023-03-17T11:23:51;7.30;;;3.13;;
66739;SDS011;53653;52.188;8.602;2023-03-17T11:29:25;8.52;;;3.60;;
66739;SDS011;53653;52.188;8.602;2023-03-17T11:32:56;13.50;;;5.13;;
66739;SDS011;53653;52.188;8.602;2023-03-17T11:40:53;5.40;;;1.83;;
66739;SDS011;53653;52.188;8.602;2023-03-17T11:49:09;10.25;;;4.90;;
66739;SDS011;53653;52.188;8.602;2023-03-17T11:56:53;6.43;;;2.38;;
66739;SDS011;53653;52.188;8.602;2023-03-17T11:59:26;8.75;;;3.65;;
66739;SDS011;53653;52.188;8.602;2023-03-17T12:04:50;6.78;;;2.25;;
66739;SDS011;53653;52.188;8.602;2023-03-17T12:07:33;7.87;;;2.87;;
66739;SDS011;53653;52.188;8.602;2023-03-17T12:10:12;7.30;;;3.05;;
66739;SDS011;53653;52.188;8.602;2023-03-17T12:13:33;12.93;;;6.18;;
66739;SDS011;53653;52.188;8.602;2023-03-17T12:20:55;8.23;;;3.03;;
66739;SDS011;53653;52.188;8.602;2023-03-17T12:23:35;7.57;;;2.83;;
66739;SDS011;53653;52.188;8.602;2023-03-17T12:26:13;9.27;;;2.90;;
66739;SDS011;53653;52.188;8.602;2023-03-17T12:31:12;8.82;;;3.15;;
66739;SDS011;53653;52.188;8.602;2023-03-17T12:36:19;9.02;;;4.20;;
66739;SDS011;53653;52.188;8.602;2023-03-17T12:38:49;14.63;;;7.63;;
66739;SDS011;53653;52.188;8.602;2023-03-17T12:41:39;10.35;;;5.38;;
66739;SDS011;53653;52.188;8.602;2023-03-17T12:52:35;6.60;;;2.90;;
66739;SDS011;53653;52.188;8.602;2023-03-17T12:58:04;10.18;;;3.42;;
66739;SDS011;53653;52.188;8.602;2023-03-17T13:00:47;9.63;;;3.50;;
66739;SDS011;53653;52.188;8.602;2023-03-17T13:03:35;10.55;;;3.40;;
66739;SDS011;53653;52.188;8.602;2023-03-17T13:06:13;7.50;;;3.38;;
66739;SDS011;53653;52.188;8.602;2023-03-17T13:08:43;6.57;;;2.28;;
66739;SDS011;53653;52.188;8.602;2023-03-17T13:16:33;9.23;;;3.50;;
66739;SDS011;53653;52.188;8.602;2023-03-17T13:21:32;7.03;;;2.33;;
66739;SDS011;53653;52.188;8.602;2023-03-17T13:24:18;8.10;;;2.80;;
66739;SDS011;53653;52.188;8.602;2023-03-17T13:26:49;7.78;;;2.92;;
66739;SDS011;53653;52.188;8.602;2023-03-17T13:34:44;7.47;;;2.80;;
66739;SDS011;53653;52.188;8.602;2023-03-17T13:45:43;6.68;;;2.45;;
66739;SDS011;53653;52.188;8.602;2023-03-17T13:51:10;6.65;;;2.72;;
66739;SDS011;53653;52.188;8.602;2023-03-17T13:53:52;7.07;;;2.40;;
66739;SDS011;53653;52.188;8.602;2023-03-17T13:58:56;7.80;;;2.53;;
66739;SDS011;53653;52.188;8.602;2023-03-17T14:01:36;8.53;;;2.50;;
66739;SDS011;53653;52.188;8.602;2023-03-17T14:04:16;7.35;;;2.65;;
66739;SDS011;53653;52.188;8.602;2023-03-17T14:06:48;6.43;;;2.30;;
66739;SDS011;53653;52.188;8.602;2023-03-17T14:11:57;7.05;;;2.30;;
66739;SDS011;53653;52.188;8.602;2023-03-17T14:22:46;6.60;;;2.40;;
66739;SDS011;53653;52.188;8.602;2023-03-17T14:25:21;8.50;;;2.83;;
66739;SDS011;53653;52.188;8.602;2023-03-17T14:27:50;6.87;;;2.30;;
66739;SDS011;53653;52.188;8.602;2023-03-17T14:30:19;8.98;;;2.90;;
66739;SDS011;53653;52.188;8.602;2023-03-17T14:32:49;8.77;;;2.80;;
66739;SDS011;53653;52.188;8.602;2023-03-17T14:35:19;8.95;;;2.70;;
66739;SDS011;53653;52.188;8.602;2023-03-17T14:37:45;8.82;;;3.10;;
66739;SDS011;53653;52.188;8.602;2023-03-17T14:40:21;7.30;;;2.90;;
66739;SDS011;53653;52.188;8.602;2023-03-17T14:42:49;7.78;;;2.60;;
66739;SDS011;53653;52.188;8.602;2023-03-17T14:45:25;7.40;;;2.47;;
66739;SDS011;53653;52.188;8.602;2023-03-17T14:47:51;7.25;;;2.67;;
66739;SDS011;53653;52.188;8.602;2023-03-17T14:50:27;8.18;;;3.10;;
66739;SDS011;53653;52.188;8.602;2023-03-17T14:52:56;8.98;;;2.97;;
66739;SDS011;53653;52.188;8.602;2023-03-17T14:55:26;9.83;;;3.10;;
66739;SDS011;53653;52.188;8.602;2023-03-17T14:57:57;7.72;;;3.10;;
66739;SDS011;53653;52.188;8.602;2023-03-17T15:00:34;10.50;;;2.65;;
66739;SDS011;53653;52.188;8.602;2023-03-17T15:03:03;7.88;;;2.58;;
66739;SDS011;53653;52.188;8.602;2023-03-17T15:05:41;6.57;;;2.67;;
66739;SDS011;53653;52.188;8.602;2023-03-17T15:08:27;7.70;;;3.20;;
66739;SDS011;53653;52.188;8.602;2023-03-17T15:10:57;8.23;;;2.70;;
66739;SDS011;53653;52.188;8.602;2023-03-17T15:13:25;7.85;;;3.10;;
66739;SDS011;53653;52.188;8.602;2023-03-17T15:15:51;5.65;;;2.35;;
66739;SDS011;53653;52.188;8.602;2023-03-17T15:18:17;7.43;;;3.00;;
66739;SDS011;53653;52.188;8.602;2023-03-17T15:20:47;6.88;;;2.42;;
66739;SDS011;53653;52.188;8.602;2023-03-17T15:23:14;6.18;;;2.70;;
66739;SDS011;53653;52.188;8.602;2023-03-17T15:25:52;9.32;;;3.05;;
66739;SDS011;53653;52.188;8.602;2023-03-17T15:28:24;9.17;;;2.97;;
66739;SDS011;53653;52.188;8.602;2023-03-17T15:30:53;7.47;;;2.50;;
66739;SDS011;53653;52.188;8.602;2023-03-17T15:36:02;7.07;;;2.63;;
66739;SDS011;53653;52.188;8.602;2023-03-17T15:38:28;9.10;;;2.70;;
66739;SDS011;53653;52.188;8.602;2023-03-17T15:40:55;9.47;;;2.70;;
66739;SDS011;53653;52.188;8.602;2023-03-17T15:43:21;9.45;;;2.70;;
66739;SDS011;53653;52.188;8.602;2023-03-17T15:45:53;9.02;;;3.00;;
66739;SDS011;53653;52.188;8.602;2023-03-17T15:48:23;6.68;;;2.60;;
66739;SDS011;53653;52.188;8.602;2023-03-17T15:50:51;8.68;;;2.70;;
66739;SDS011;53653;52.188;8.602;2023-03-17T15:53:19;6.50;;;2.60;;
66739;SDS011;53653;52.188;8.602;2023-03-17T15:55:45;8.50;;;2.45;;
66739;SDS011;53653;52.188;8.602;2023-03-17T15:58:11;6.95;;;2.40;;
66739;SDS011;53653;52.188;8.602;2023-03-17T16:00:37;8.30;;;2.70;;
66739;SDS011;53653;52.188;8.602;2023-03-17T16:03:04;6.27;;;2.37;;
66739;SDS011;53653;52.188;8.602;2023-03-17T16:05:51;9.48;;;2.65;;
66739;SDS011;53653;52.188;8.602;2023-03-17T16:08:17;9.10;;;3.08;;
66739;SDS011;53653;52.188;8.602;2023-03-17T16:10:43;9.43;;;2.70;;
66739;SDS011;53653;52.188;8.602;2023-03-17T16:13:09;7.57;;;2.72;;
66739;SDS011;53653;52.188;8.602;2023-03-17T16:15:39;8.35;;;2.67;;
66739;SDS011;53653;52.188;8.602;2023-03-17T16:18:12;7.70;;;2.65;;
66739;SDS011;53653;52.188;8.602;2023-03-17T16:20:48;7.53;;;3.00;;
66739;SDS011;53653;52.188;8.602;2023-03-17T16:23:16;7.63;;;3.10;;
66739;SDS011;53653;52.188;8.602;2023-03-17T16:25:43;7.47;;;3.17;;
66739;SDS011;53653;52.188;8.602;2023-03-17T16:28:14;8.73;;;3.00;;
66739;SDS011;53653;52.188;8.602;2023-03-17T16:30:42;7.03;;;2.70;;
66739;SDS011;53653;52.188;8.602;2023-03-17T16:33:21;7.85;;;3.00;;
66739;SDS011;53653;52.188;8.602;2023-03-17T16:35:47;9.00;;;2.50;;
66739;SDS011;53653;52.188;8.602;2023-03-17T16:38:16;6.43;;;2.40;;
66739;SDS011;53653;52.188;8.602;2023-03-17T16:40:57;7.03;;;2.58;;
66739;SDS011;53653;52.188;8.602;2023-03-17T16:43:28;8.35;;;2.65;;
66739;SDS011;53653;52.188;8.602;2023-03-17T16:45:59;7.32;;;2.63;;
66739;SDS011;53653;52.188;8.602;2023-03-17T16:48:27;7.17;;;2.50;;
66739;SDS011;53653;52.188;8.602;2023-03-17T16:50:52;8.00;;;2.63;;
66739;SDS011;53653;52.188;8.602;2023-03-17T16:53:18;6.30;;;2.63;;
66739;SDS011;53653;52.188;8.602;2023-03-17T16:55:44;6.30;;;2.50;;
66739;SDS011;53653;52.188;8.602;2023-03-17T16:58:23;7.20;;;2.58;;
66739;SDS011;53653;52.188;8.602;2023-03-17T17:01:01;6.53;;;2.10;;